Time;durP1;ratioP1;P1;durP2;ratioP2;P2;SDS_P1;SDS_P2;PMS_P1;PMS_P2;Temp;Humidity;BMP_temperature;BMP_pressure;BME280_temperature;BME280_humidity;BME280_pressure;Samples;Min_cycle;Max_cycle;Signal;HPM_P1;HPM_P2
2023/07/26 00:01:57;;;;;;;4.17;2.50;;;14.60;99.90;;;;;;5082694;28;20869;-80
2023/07/26 00:04:24;;;;;;;3.40;1.87;;;14.60;99.90;;;;;;5081732;28;20893;-81
2023/07/26 00:06:51;;;;;;;3.97;2.10;;;14.70;99.90;;;;;;5081298;28;20884;-82
2023/07/26 00:09:18;;;;;;;2.70;2.03;;;14.60;99.90;;;;;;5082176;28;20616;-82
2023/07/26 00:11:44;;;;;;;3.97;1.87;;;14.60;99.90;;;;;;5082172;28;20885;-83
2023/07/26 00:14:13;;;;;;;4.40;2.33;;;14.60;1.00;;;;;;5081564;28;20590;-82
2023/07/26 00:16:41;;;;;;;3.60;2.33;;;14.60;1.00;;;;;;5078850;28;20458;-79
2023/07/26 00:19:07;;;;;;;2.70;2.10;;;14.60;1.00;;;;;;5080567;28;20527;-81
2023/07/26 00:21:34;;;;;;;3.80;2.37;;;14.60;1.00;;;;;;5079487;28;20856;-81
2023/07/26 00:24:01;;;;;;;3.20;2.10;;;14.60;1.00;;;;;;5079763;28;20458;-82
2023/07/26 00:26:28;;;;;;;4.83;2.17;;;14.60;1.00;;;;;;5078616;28;20514;-81
2023/07/26 00:28:55;;;;;;;3.97;1.97;;;14.60;1.00;;;;;;5079129;28;20457;-82
2023/07/26 00:31:23;;;;;;;3.03;1.80;;;14.70;1.00;;;;;;5079595;28;20545;-83
2023/07/26 00:33:50;;;;;;;3.47;1.93;;;14.60;1.00;;;;;;5081364;28;20468;-82
2023/07/26 00:36:16;;;;;;;6.80;2.43;;;14.70;1.00;;;;;;5095524;22;20528;-83
2023/07/26 00:38:43;;;;;;;2.53;1.87;;;14.70;1.00;;;;;;5079255;28;20454;-83
2023/07/26 00:41:10;;;;;;;3.33;2.00;;;14.70;1.00;;;;;;5075454;28;20515;-83
2023/07/26 00:43:37;;;;;;;3.87;2.10;;;14.70;1.00;;;;;;5086636;28;20678;-83
2023/07/26 00:46:06;;;;;;;3.83;2.23;;;14.70;1.00;;;;;;5087099;28;20478;-82
2023/07/26 00:48:35;;;;;;;3.80;1.93;;;14.70;1.00;;;;;;5085888;28;20459;-83
2023/07/26 00:51:02;;;;;;;2.83;1.77;;;14.70;1.00;;;;;;5088026;28;20823;-83
2023/07/26 00:53:30;;;;;;;3.70;2.00;;;14.70;1.00;;;;;;5086799;28;20450;-83
2023/07/26 00:55:58;;;;;;;3.60;1.97;;;14.70;1.00;;;;;;5086589;28;20475;-82
2023/07/26 00:58:25;;;;;;;4.23;2.10;;;14.70;1.00;;;;;;5082108;28;20482;-82
2023/07/26 01:00:52;;;;;;;3.43;1.80;;;14.70;1.00;;;;;;5082585;28;20447;-82
2023/07/26 01:03:19;;;;;;;4.27;2.13;;;14.70;1.00;;;;;;5081576;28;20866;-81
2023/07/26 01:05:56;;;;;;;3.33;2.10;;;14.70;1.00;;;;;;5079960;28;20562;-82
2023/07/26 01:08:34;;;;;;;3.10;1.90;;;14.70;1.00;;;;;;5080163;28;20441;-81
2023/07/26 01:11:11;;;;;;;3.13;2.30;;;14.70;1.00;;;;;;5080072;28;20454;-81
2023/07/26 01:13:45;;;;;;;4.07;2.00;;;14.70;1.00;;;;;;5079439;28;20435;-82
2023/07/26 01:16:13;;;;;;;2.67;1.90;;;14.70;1.00;;;;;;5079812;28;20473;-83
2023/07/26 01:18:41;;;;;;;4.37;2.47;;;14.70;1.00;;;;;;5080124;28;20457;-82
2023/07/26 01:21:09;;;;;;;4.80;2.30;;;14.70;1.00;;;;;;5079953;28;20466;-83
2023/07/26 01:23:38;;;;;;;4.93;2.07;;;14.80;1.00;;;;;;5079777;28;20510;-82
2023/07/26 01:26:05;;;;;;;5.57;2.13;;;14.80;1.00;;;;;;5080252;28;20877;-81
2023/07/26 01:28:32;;;;;;;2.50;1.90;;;14.80;1.00;;;;;;5080265;28;21176;-82
2023/07/26 01:31:01;;;;;;;2.60;1.87;;;14.80;1.00;;;;;;5080947;28;20455;-82
2023/07/26 01:33:29;;;;;;;3.40;2.00;;;14.80;1.00;;;;;;5081177;28;20964;-81
2023/07/26 01:35:57;;;;;;;3.03;2.00;;;14.80;1.00;;;;;;5080399;28;20487;-82
2023/07/26 01:38:25;;;;;;;3.43;2.03;;;14.80;1.00;;;;;;5079298;28;20493;-82
2023/07/26 01:40:55;;;;;;;4.60;2.30;;;14.90;1.00;;;;;;5079499;28;20451;-82
2023/07/26 01:43:21;;;;;;;5.63;2.87;;;14.90;1.00;;;;;;5079153;28;21009;-82
2023/07/26 01:45:48;;;;;;;4.67;2.10;;;14.80;1.00;;;;;;5078082;28;20481;-83
2023/07/26 01:48:15;;;;;;;3.20;1.87;;;14.80;1.00;;;;;;5080380;28;20477;-81
2023/07/26 01:50:42;;;;;;;4.37;2.50;;;14.80;1.00;;;;;;5081851;28;20590;-81
2023/07/26 01:53:08;;;;;;;3.90;3.50;;;14.80;99.90;;;;;;5080635;28;21197;-82
2023/07/26 01:55:35;;;;;;;5.40;2.17;;;14.80;99.90;;;;;;5079441;28;20478;-82
2023/07/26 01:58:03;;;;;;;4.43;2.17;;;14.80;99.90;;;;;;5080139;28;20524;-82
2023/07/26 02:00:30;;;;;;;3.80;2.20;;;14.80;1.00;;;;;;5080819;28;20454;-82
2023/07/26 02:02:57;;;;;;;5.13;2.60;;;14.80;1.00;;;;;;5080344;28;20560;-82
2023/07/26 02:05:25;;;;;;;4.80;2.50;;;14.80;1.00;;;;;;5078550;28;20928;-82
2023/07/26 02:07:52;;;;;;;3.63;2.27;;;14.80;1.00;;;;;;5080981;28;20443;-81
2023/07/26 02:10:19;;;;;;;3.27;1.83;;;14.90;1.00;;;;;;5080809;28;20453;-83
2023/07/26 02:12:45;;;;;;;4.50;2.43;;;14.90;1.00;;;;;;5081121;28;20451;-83
2023/07/26 02:15:14;;;;;;;3.60;2.40;;;14.90;1.00;;;;;;5080849;28;20565;-80
2023/07/26 02:17:40;;;;;;;5.87;2.60;;;14.90;1.00;;;;;;5082550;28;20549;-82
2023/07/26 02:20:08;;;;;;;2.70;1.80;;;14.90;99.90;;;;;;5082057;28;20549;-82
2023/07/26 02:22:35;;;;;;;3.40;2.13;;;15.00;99.90;;;;;;5082989;28;20489;-81
2023/07/26 02:25:02;;;;;;;4.27;2.07;;;15.00;1.00;;;;;;5083242;28;20894;-82
2023/07/26 02:27:29;;;;;;;3.60;2.03;;;15.00;1.00;;;;;;5083415;28;20459;-83
2023/07/26 02:29:56;;;;;;;2.60;1.70;;;15.00;1.00;;;;;;5084161;28;20450;-83
2023/07/26 02:32:24;;;;;;;5.57;2.80;;;15.00;1.00;;;;;;5084721;28;20443;-82
2023/07/26 02:34:51;;;;;;;2.40;1.90;;;15.00;99.90;;;;;;5081504;28;20478;-82
2023/07/26 02:37:17;;;;;;;4.33;2.20;;;15.10;99.90;;;;;;5080806;28;20466;-82
2023/07/26 02:39:44;;;;;;;4.20;2.10;;;15.10;99.90;;;;;;5081037;28;20540;-82
2023/07/26 02:42:11;;;;;;;3.83;2.30;;;15.10;99.90;;;;;;5082316;28;20480;-83
2023/07/26 02:44:38;;;;;;;2.87;2.37;;;15.00;1.00;;;;;;5082297;28;20888;-82
2023/07/26 02:47:05;;;;;;;4.00;2.60;;;15.10;99.90;;;;;;5076154;28;20458;-83
2023/07/26 02:49:33;;;;;;;9.30;3.00;;;15.10;1.00;;;;;;5077498;28;20446;-81
2023/07/26 02:52:00;;;;;;;3.73;2.30;;;14.90;23.50;;;;;;5076760;28;20458;-80
2023/07/26 02:54:27;;;;;;;2.50;1.77;;;14.80;99.90;;;;;;5077128;28;20458;-80
2023/07/26 02:56:54;;;;;;;2.87;1.87;;;14.60;53.50;;;;;;5078318;28;20461;-79
2023/07/26 02:59:21;;;;;;;6.03;2.50;;;14.40;99.00;;;;;;5080189;28;20547;-80
2023/07/26 03:01:47;;;;;;;4.40;1.83;;;14.30;99.90;;;;;;5078973;28;21795;-80
2023/07/26 03:04:14;;;;;;;3.13;2.40;;;14.10;99.90;;;;;;5078029;28;20491;-79
2023/07/26 03:06:42;;;;;;;3.20;2.07;;;14.10;99.90;;;;;;5077010;28;20566;-80
2023/07/26 03:09:09;;;;;;;2.93;1.57;;;14.00;99.90;;;;;;5078550;28;20977;-79
2023/07/26 03:11:36;;;;;;;2.83;1.97;;;13.90;99.90;;;;;;5078622;28;20769;-80
2023/07/26 03:14:03;;;;;;;2.30;1.50;;;13.90;99.90;;;;;;5077806;28;20460;-81
2023/07/26 03:16:30;;;;;;;4.13;2.27;;;13.90;99.90;;;;;;5077035;28;20477;-81
2023/07/26 03:18:57;;;;;;;4.70;2.30;;;13.80;99.90;;;;;;5078174;28;20954;-81
2023/07/26 03:21:23;;;;;;;3.00;1.90;;;13.70;99.90;;;;;;5074416;28;20538;-80
2023/07/26 03:23:52;;;;;;;3.47;1.80;;;13.70;99.90;;;;;;5077925;28;20480;-79
2023/07/26 03:26:19;;;;;;;2.70;2.47;;;13.60;99.90;;;;;;5076040;28;20474;-79
2023/07/26 03:28:45;;;;;;;3.20;2.30;;;13.60;99.90;;;;;;5079029;28;20933;-79
2023/07/26 03:31:12;;;;;;;3.00;2.13;;;13.60;99.90;;;;;;5072230;28;20452;-79
2023/07/26 03:33:39;;;;;;;3.23;2.57;;;13.50;99.90;;;;;;5077866;28;20450;-79
2023/07/26 03:36:06;;;;;;;5.23;2.47;;;13.50;99.90;;;;;;5076283;28;20475;-79
2023/07/26 03:38:32;;;;;;;5.40;2.53;;;13.50;99.90;;;;;;5077954;28;21002;-79
2023/07/26 03:41:01;;;;;;;3.43;2.30;;;13.50;99.90;;;;;;5074802;28;20508;-79
2023/07/26 03:43:27;;;;;;;3.27;2.43;;;13.40;99.90;;;;;;5078236;28;20565;-79
2023/07/26 03:45:54;;;;;;;3.90;2.17;;;13.40;99.90;;;;;;5077558;28;20588;-80
2023/07/26 03:48:21;;;;;;;2.47;2.27;;;13.40;99.90;;;;;;5079556;28;20458;-79
2023/07/26 03:50:48;;;;;;;3.37;2.30;;;13.40;99.90;;;;;;5079811;28;20978;-79
2023/07/26 03:53:15;;;;;;;3.90;2.57;;;13.40;99.90;;;;;;5080035;28;20544;-80
2023/07/26 03:55:41;;;;;;;3.33;2.57;;;13.40;99.90;;;;;;5077426;28;20494;-80
2023/07/26 03:58:09;;;;;;;3.73;3.30;;;13.50;99.90;;;;;;5081218;28;20540;-79
2023/07/26 04:00:36;;;;;;;4.23;2.90;;;13.50;99.90;;;;;;5081602;28;20513;-79
2023/07/26 04:03:03;;;;;;;4.67;2.90;;;13.50;99.90;;;;;;5081827;28;20486;-80
2023/07/26 04:05:29;;;;;;;4.00;3.37;;;13.60;99.90;;;;;;5077118;28;20544;-80
2023/07/26 04:07:56;;;;;;;3.93;3.53;;;13.60;99.90;;;;;;5081203;28;20482;-80
2023/07/26 04:10:23;;;;;;;5.67;3.80;;;13.60;99.90;;;;;;5084729;28;20770;-80
2023/07/26 04:12:50;;;;;;;5.07;3.37;;;13.60;99.90;;;;;;5083347;28;20446;-80
2023/07/26 04:15:18;;;;;;;4.83;3.20;;;13.70;99.90;;;;;;5084106;28;20474;-80
2023/07/26 04:17:45;;;;;;;8.50;3.97;;;13.70;99.90;;;;;;5083867;28;20453;-81
2023/07/26 04:20:12;;;;;;;5.17;3.80;;;13.80;99.90;;;;;;5079923;28;20990;-80
2023/07/26 04:22:39;;;;;;;4.23;3.50;;;13.80;99.90;;;;;;5072692;28;20530;-80
2023/07/26 04:25:07;;;;;;;6.20;3.80;;;13.80;99.90;;;;;;5078603;28;20478;-77
2023/07/26 04:27:34;;;;;;;6.13;3.80;;;13.80;99.90;;;;;;5084968;28;20452;-80
2023/07/26 04:30:01;;;;;;;5.27;3.83;;;13.90;99.90;;;;;;5083528;28;20548;-80
2023/07/26 04:32:29;;;;;;;4.47;3.63;;;13.90;99.90;;;;;;5084336;28;20556;-80
2023/07/26 04:34:56;;;;;;;6.87;4.13;;;13.90;99.90;;;;;;5087572;28;20488;-80
2023/07/26 04:37:23;;;;;;;5.63;5.10;;;13.90;99.90;;;;;;5087707;28;20504;-80
2023/07/26 04:39:50;;;;;;;5.73;5.10;;;14.00;99.90;;;;;;5086665;28;20484;-78
2023/07/26 04:42:19;;;;;;;7.70;4.90;;;14.00;99.90;;;;;;5087578;28;20830;-79
2023/07/26 04:44:46;;;;;;;6.90;5.50;;;14.00;99.90;;;;;;5076346;28;20492;-80
2023/07/26 04:47:15;;;;;;;7.10;5.30;;;14.00;99.90;;;;;;5076771;28;20446;-80
2023/07/26 04:49:43;;;;;;;6.27;4.80;;;14.00;99.90;;;;;;5078394;28;20455;-79
2023/07/26 04:52:10;;;;;;;6.90;5.43;;;14.10;99.90;;;;;;5079901;28;20545;-80
2023/07/26 04:54:36;;;;;;;6.20;5.43;;;14.00;99.90;;;;;;5079356;28;20542;-81
2023/07/26 04:57:05;;;;;;;6.53;4.97;;;14.00;99.90;;;;;;5079284;28;20466;-80
2023/07/26 04:59:32;;;;;;;7.03;6.17;;;14.10;99.90;;;;;;5079210;28;20469;-80
2023/07/26 05:01:59;;;;;;;8.30;5.50;;;14.10;99.90;;;;;;5078958;28;20451;-80
2023/07/26 05:04:25;;;;;;;5.43;4.87;;;14.20;99.90;;;;;;5079120;28;20491;-79
2023/07/26 05:06:54;;;;;;;7.27;4.73;;;14.20;99.90;;;;;;5079420;28;20544;-80
2023/07/26 05:09:20;;;;;;;5.90;5.30;;;14.20;99.90;;;;;;5079797;28;20463;-80
2023/07/26 05:11:47;;;;;;;6.33;4.30;;;14.20;99.90;;;;;;5080251;28;20552;-81
2023/07/26 05:14:14;;;;;;;7.53;4.03;;;14.20;99.90;;;;;;5079884;28;20491;-81
2023/07/26 05:16:41;;;;;;;4.50;3.10;;;14.10;99.90;;;;;;5078720;28;20859;-81
2023/07/26 05:19:07;;;;;;;4.10;3.70;;;14.10;99.90;;;;;;5078408;28;20466;-81
2023/07/26 05:21:34;;;;;;;6.43;3.63;;;14.10;99.90;;;;;;5076877;28;20536;-81
2023/07/26 05:24:02;;;;;;;6.00;3.10;;;14.00;99.90;;;;;;5076716;28;20471;-80
2023/07/26 05:26:29;;;;;;;4.60;3.00;;;14.10;99.90;;;;;;5077450;28;20478;-81
2023/07/26 05:28:56;;;;;;;3.60;3.00;;;14.10;99.90;;;;;;5078793;28;20556;-80
2023/07/26 05:31:23;;;;;;;5.33;3.10;;;14.10;99.90;;;;;;5078689;28;20534;-80
2023/07/26 05:33:49;;;;;;;5.30;2.63;;;14.20;99.90;;;;;;5078030;28;20453;-81
2023/07/26 05:36:16;;;;;;;3.80;2.70;;;14.20;99.90;;;;;;5077963;28;20477;-79
2023/07/26 05:38:43;;;;;;;4.20;2.53;;;14.20;99.90;;;;;;5077637;28;20524;-80
2023/07/26 05:41:11;;;;;;;3.37;2.20;;;14.20;99.90;;;;;;5079890;28;20541;-80
2023/07/26 05:43:38;;;;;;;5.37;2.57;;;14.20;99.90;;;;;;5080091;28;20930;-81
2023/07/26 05:46:06;;;;;;;2.40;1.77;;;14.30;99.90;;;;;;5079365;28;20474;-80
2023/07/26 05:48:33;;;;;;;4.00;2.33;;;14.30;99.90;;;;;;5080961;28;20954;-81
2023/07/26 05:51:00;;;;;;;3.00;2.10;;;14.20;99.90;;;;;;5080592;28;20539;-81
2023/07/26 05:53:26;;;;;;;2.63;2.00;;;14.20;99.90;;;;;;5081549;28;20836;-81
2023/07/26 05:55:53;;;;;;;3.97;2.53;;;14.20;99.90;;;;;;5080936;28;20562;-81
2023/07/26 05:58:21;;;;;;;2.63;2.07;;;14.30;99.90;;;;;;5082684;28;20550;-81
2023/07/26 06:00:48;;;;;;;3.20;2.20;;;14.30;99.90;;;;;;5085128;28;20896;-80
2023/07/26 06:03:15;;;;;;;3.30;2.60;;;14.30;99.90;;;;;;5085699;28;20522;-80
2023/07/26 06:05:42;;;;;;;3.43;2.53;;;14.40;99.90;;;;;;5084356;28;20473;-79
2023/07/26 06:08:08;;;;;;;2.67;2.10;;;14.40;99.90;;;;;;5083335;28;20482;-80
2023/07/26 06:10:35;;;;;;;3.50;2.43;;;14.40;99.90;;;;;;5084660;28;20478;-81
2023/07/26 06:13:02;;;;;;;4.33;2.40;;;14.40;99.90;;;;;;5084610;28;20450;-80
2023/07/26 06:15:30;;;;;;;3.30;2.30;;;14.40;99.90;;;;;;5083893;28;20561;-79
2023/07/26 06:17:57;;;;;;;3.83;2.30;;;14.50;99.90;;;;;;5082979;28;20449;-80
2023/07/26 06:20:24;;;;;;;2.43;2.20;;;14.50;99.90;;;;;;5086065;28;20511;-79
2023/07/26 06:22:51;;;;;;;5.50;2.90;;;14.60;99.90;;;;;;5063524;28;20459;-79
2023/07/26 06:25:18;;;;;;;2.63;2.17;;;14.60;99.90;;;;;;5083575;28;20481;-79
2023/07/26 06:27:44;;;;;;;3.17;2.87;;;14.60;99.90;;;;;;5085833;28;20530;-79
2023/07/26 06:30:13;;;;;;;3.93;2.80;;;14.60;99.90;;;;;;5086923;28;20666;-80
2023/07/26 06:32:41;;;;;;;3.80;2.80;;;14.60;99.90;;;;;;5085338;28;20460;-79
2023/07/26 06:37:38;;;;;;;5.00;3.03;;;14.70;99.90;;;;;;5082563;22;20584;-79
2023/07/26 06:40:06;;;;;;;4.10;2.63;;;14.70;99.90;;;;;;5055127;28;21015;-79
2023/07/26 06:42:33;;;;;;;3.40;3.10;;;14.80;99.90;;;;;;5074553;28;20538;-80
2023/07/26 06:45:00;;;;;;;3.97;3.37;;;14.80;99.90;;;;;;5074591;28;20862;-78
2023/07/26 06:47:26;;;;;;;3.73;2.97;;;14.90;99.90;;;;;;5071981;28;20480;-77
2023/07/26 06:49:55;;;;;;;4.03;3.43;;;14.80;99.90;;;;;;5072570;28;20881;-78
2023/07/26 06:52:21;;;;;;;5.10;3.93;;;14.90;99.90;;;;;;5074252;28;20542;-77
2023/07/26 06:54:48;;;;;;;3.20;2.80;;;14.90;99.90;;;;;;5073558;28;20448;-78
2023/07/26 06:57:15;;;;;;;5.20;3.70;;;15.00;99.90;;;;;;5074973;28;20470;-79
2023/07/26 06:59:42;;;;;;;4.23;2.93;;;15.10;99.90;;;;;;5075483;28;20443;-79
2023/07/26 07:02:09;;;;;;;3.80;3.40;;;15.20;99.90;;;;;;5072819;28;20458;-78
2023/07/26 07:04:36;;;;;;;7.30;3.47;;;15.30;99.90;;;;;;5041589;28;21394;-78
2023/07/26 07:07:04;;;;;;;4.60;3.70;;;15.40;99.90;;;;;;5069539;28;20478;-78
2023/07/26 07:09:31;;;;;;;5.30;3.50;;;15.40;99.90;;;;;;5070935;28;20450;-78
2023/07/26 07:11:58;;;;;;;4.03;3.60;;;15.40;99.90;;;;;;5072048;28;20457;-80
2023/07/26 07:14:25;;;;;;;4.70;3.77;;;15.50;99.90;;;;;;5052302;28;21088;-79
2023/07/26 07:16:52;;;;;;;7.13;4.13;;;15.60;99.90;;;;;;5058196;28;20504;-78
2023/07/26 07:19:19;;;;;;;5.50;4.60;;;15.70;99.90;;;;;;5066181;28;20466;-80
2023/07/26 07:21:46;;;;;;;4.90;4.40;;;15.80;99.90;;;;;;5064274;28;20451;-80
2023/07/26 07:24:14;;;;;;;5.47;4.93;;;15.90;99.90;;;;;;5033363;28;20603;-80
2023/07/26 07:26:41;;;;;;;6.50;4.90;;;16.00;99.90;;;;;;5069142;28;20477;-79
2023/07/26 07:29:07;;;;;;;8.80;5.23;;;16.00;99.90;;;;;;5066216;28;20540;-79
2023/07/26 07:31:34;;;;;;;7.77;6.20;;;16.10;99.90;;;;;;5070527;28;20542;-79
2023/07/26 07:34:01;;;;;;;7.20;6.23;;;16.00;99.90;;;;;;5070555;28;20454;-80
2023/07/26 07:36:28;;;;;;;10.33;6.77;;;16.00;99.90;;;;;;5071476;28;20507;-78
2023/07/26 07:38:55;;;;;;;7.77;6.27;;;16.00;99.90;;;;;;5074762;28;20455;-78
2023/07/26 07:41:23;;;;;;;6.87;5.50;;;16.10;99.90;;;;;;5069979;28;20467;-80
2023/07/26 07:43:50;;;;;;;6.10;5.40;;;16.20;99.90;;;;;;5069193;28;20566;-79
2023/07/26 07:46:17;;;;;;;6.50;5.07;;;16.30;99.90;;;;;;5069333;28;20486;-78
2023/07/26 07:48:43;;;;;;;9.87;6.70;;;16.40;99.90;;;;;;5071314;28;20458;-79
2023/07/26 07:51:10;;;;;;;7.43;6.03;;;16.60;99.90;;;;;;5069937;28;21017;-79
2023/07/26 07:53:37;;;;;;;9.50;5.90;;;16.70;99.90;;;;;;5066711;28;20494;-80
2023/07/26 07:56:04;;;;;;;7.43;6.63;;;16.60;99.90;;;;;;5070991;28;20482;-79
2023/07/26 07:58:32;;;;;;;8.53;5.60;;;16.80;99.90;;;;;;5069111;28;20451;-80
2023/07/26 08:00:59;;;;;;;7.47;5.77;;;16.80;99.90;;;;;;5071980;28;20457;-81
2023/07/26 08:03:26;;;;;;;6.83;6.00;;;16.80;99.90;;;;;;5072546;28;20545;-80
2023/07/26 08:05:53;;;;;;;8.53;5.80;;;17.00;99.90;;;;;;5074540;28;20575;-80
2023/07/26 08:08:20;;;;;;;7.33;6.30;;;17.10;99.90;;;;;;5072017;28;20535;-79
2023/07/26 08:10:46;;;;;;;8.30;7.20;;;17.30;99.90;;;;;;5072518;28;20458;-80
2023/07/26 08:13:13;;;;;;;7.63;5.80;;;17.20;99.90;;;;;;5070881;28;20982;-79
2023/07/26 08:15:42;;;;;;;8.80;6.43;;;17.30;61.40;;;;;;5071740;28;20490;-78
2023/07/26 08:18:09;;;;;;;7.40;5.53;;;17.20;91.30;;;;;;5064958;28;20457;-81
2023/07/26 08:20:37;;;;;;;8.77;5.97;;;17.20;61.00;;;;;;5073515;28;20453;-80
2023/07/26 08:23:05;;;;;;;9.00;6.53;;;17.20;99.90;;;;;;5071676;28;20502;-79
2023/07/26 08:25:32;;;;;;;8.07;5.70;;;17.30;80.40;;;;;;5051403;28;20495;-80
2023/07/26 08:27:59;;;;;;;7.10;6.10;;;17.30;81.60;;;;;;5069155;28;20446;-79
2023/07/26 08:30:26;;;;;;;6.43;5.77;;;17.30;71.40;;;;;;5072568;28;20540;-79
2023/07/26 08:32:54;;;;;;;7.87;7.17;;;17.50;99.90;;;;;;5070852;28;20560;-80
2023/07/26 08:35:21;;;;;;;7.70;6.67;;;17.60;35.50;;;;;;5074077;28;20453;-79
2023/07/26 08:37:47;;;;;;;6.47;5.77;;;17.60;2.00;;;;;;5074343;28;20477;-80
2023/07/26 08:40:15;;;;;;;7.30;6.60;;;17.70;1.00;;;;;;5067216;28;20542;-81
2023/07/26 08:42:42;;;;;;;10.17;6.00;;;17.80;1.00;;;;;;5075017;28;20516;-80
2023/07/26 08:45:10;;;;;;;7.77;5.87;;;17.90;1.00;;;;;;5072523;28;20569;-81
2023/07/26 08:47:37;;;;;;;5.73;5.23;;;18.00;1.00;;;;;;5073297;28;20917;-81
2023/07/26 08:50:06;;;;;;;7.30;6.60;;;18.10;47.60;;;;;;5073528;28;20457;-79
2023/07/26 08:52:34;;;;;;;6.33;5.70;;;18.20;52.20;;;;;;5076418;28;20542;-79
2023/07/26 08:55:01;;;;;;;10.63;6.30;;;18.20;1.00;;;;;;5075734;28;20448;-80
2023/07/26 08:57:28;;;;;;;6.13;5.53;;;18.50;39.10;;;;;;5075600;28;20484;-79
2023/07/26 08:59:55;;;;;;;8.40;6.30;;;18.70;1.00;;;;;;5080279;28;20943;-80
2023/07/26 09:02:23;;;;;;;11.00;7.30;;;18.90;99.90;;;;;;5078117;28;20825;-80
2023/07/26 09:04:50;;;;;;;8.30;7.20;;;18.90;99.90;;;;;;5078401;28;20487;-80
2023/07/26 09:07:19;;;;;;;8.80;8.00;;;18.90;99.90;;;;;;5079894;28;20471;-78
2023/07/26 09:09:46;;;;;;;7.67;6.97;;;19.00;1.00;;;;;;5075426;28;20976;-81
2023/07/26 09:12:24;;;;;;;12.50;7.83;;;19.00;1.00;;;;;;5079234;28;20510;-84
2023/07/26 09:14:54;;;;;;;8.67;7.80;;;19.00;1.00;;;;;;5080786;28;20500;-80
2023/07/26 09:17:23;;;;;;;8.63;7.83;;;18.90;99.90;;;;;;5083347;28;20470;-82
2023/07/26 09:19:56;;;;;;;8.13;7.40;;;18.90;99.90;;;;;;5087009;28;20559;-82
2023/07/26 09:22:24;;;;;;;11.00;8.60;;;18.80;1.00;;;;;;5073481;28;20459;-80
2023/07/26 09:24:51;;;;;;;15.60;9.70;;;18.60;1.00;;;;;;5080355;28;20562;-80
2023/07/26 09:27:19;;;;;;;11.33;10.20;;;18.20;27.40;;;;;;5081525;28;20580;-80
2023/07/26 09:29:57;;;;;;;10.33;9.00;;;17.70;53.40;;;;;;5086664;28;20458;-80
2023/07/26 09:32:30;;;;;;;11.27;9.80;;;17.40;99.90;;;;;;5077253;28;20474;-80
2023/07/26 09:34:59;;;;;;;12.40;11.10;;;17.10;99.90;;;;;;5084469;28;20448;-80
2023/07/26 09:37:28;;;;;;;13.00;10.87;;;16.90;99.90;;;;;;5077697;28;20583;-79
2023/07/26 09:39:55;;;;;;;12.60;11.40;;;16.60;99.90;;;;;;5075352;28;20566;-80
2023/07/26 09:42:22;;;;;;;9.60;8.60;;;16.40;99.90;;;;;;5079626;28;20473;-79
2023/07/26 09:44:57;;;;;;;10.70;5.33;;;16.00;99.90;;;;;;5074116;28;21010;-80
2023/07/26 09:47:35;;;;;;;6.20;3.83;;;15.60;99.90;;;;;;5075262;28;21005;-80
2023/07/26 09:50:02;;;;;;;6.00;3.77;;;15.20;99.90;;;;;;5071501;28;20822;-80
2023/07/26 09:52:31;;;;;;;8.20;3.90;;;14.90;99.90;;;;;;5077656;28;20480;-80
2023/07/26 09:55:00;;;;;;;4.07;3.10;;;14.80;99.90;;;;;;5077850;28;20446;-80
2023/07/26 09:57:29;;;;;;;5.23;3.30;;;14.70;99.90;;;;;;5079850;28;20481;-80
2023/07/26 10:00:00;;;;;;;3.53;2.90;;;14.60;99.90;;;;;;5082868;28;20543;-81
2023/07/26 10:02:29;;;;;;;3.57;2.90;;;14.50;99.90;;;;;;5083396;28;20453;-81
2023/07/26 10:04:58;;;;;;;5.57;3.33;;;14.40;99.90;;;;;;5080719;28;20569;-82
2023/07/26 10:07:28;;;;;;;3.67;2.70;;;14.40;99.90;;;;;;5076912;28;20911;-80
2023/07/26 10:09:58;;;;;;;4.97;3.40;;;14.30;99.90;;;;;;5080557;28;20457;-82
2023/07/26 10:12:26;;;;;;;4.50;3.10;;;14.30;99.90;;;;;;5079306;28;20453;-80
2023/07/26 10:14:56;;;;;;;3.70;2.70;;;14.30;99.90;;;;;;5082409;28;20450;-78
2023/07/26 10:17:25;;;;;;;3.00;2.70;;;14.30;99.90;;;;;;5080383;28;20477;-80
2023/07/26 10:19:53;;;;;;;3.87;2.60;;;14.30;99.90;;;;;;5080893;28;20457;-80
2023/07/26 10:22:21;;;;;;;4.60;2.87;;;14.30;99.90;;;;;;5081869;28;20578;-79
2023/07/26 10:24:48;;;;;;;4.53;3.10;;;14.40;99.90;;;;;;5075537;28;20487;-78
2023/07/26 10:27:16;;;;;;;6.20;3.40;;;14.50;99.90;;;;;;5079376;28;20539;-80
2023/07/26 10:29:43;;;;;;;4.90;3.20;;;14.60;99.90;;;;;;5080105;28;20468;-79
2023/07/26 10:32:11;;;;;;;5.10;3.87;;;14.90;99.90;;;;;;5074492;28;20465;-79
2023/07/26 10:34:38;;;;;;;6.20;4.70;;;15.30;99.90;;;;;;5081798;28;20464;-80
2023/07/26 10:37:18;;;;;;;3.70;3.07;;;16.00;99.90;;;;;;5082093;28;20494;-84
2023/07/26 10:39:45;;;;;;;6.80;3.97;;;16.40;99.90;;;;;;5081060;28;20452;-81
2023/07/26 10:42:24;;;;;;;5.00;3.70;;;16.60;99.90;;;;;;5081660;28;20458;-81
2023/07/26 10:44:52;;;;;;;4.20;3.20;;;16.70;99.90;;;;;;5085820;28;20479;-80
2023/07/26 10:47:19;;;;;;;3.87;3.47;;;16.80;99.90;;;;;;5084816;28;20461;-81
2023/07/26 10:49:47;;;;;;;4.67;3.40;;;17.10;99.90;;;;;;5081629;28;20556;-80
2023/07/26 10:52:14;;;;;;;4.90;3.30;;;17.40;99.90;;;;;;5082817;28;20480;-81
2023/07/26 10:54:42;;;;;;;4.47;3.27;;;17.60;99.90;;;;;;5079039;28;20456;-79
2023/07/26 10:57:18;;;;;;;5.67;4.00;;;17.90;99.90;;;;;;5081525;28;20757;-79
2023/07/26 11:00:00;;;;;;;4.00;3.10;;;18.20;99.90;;;;;;5076564;28;20572;-81
2023/07/26 11:02:59;;;;;;;4.10;3.50;;;18.50;99.90;;;;;;5079314;28;20452;-80
2023/07/26 11:05:29;;;;;;;8.67;3.43;;;18.90;99.90;;;;;;5063239;28;20483;-81
2023/07/26 11:08:01;;;;;;;7.20;4.10;;;19.40;99.90;;;;;;5079286;28;20451;-80
2023/07/26 11:10:30;;;;;;;3.97;3.17;;;19.80;99.90;;;;;;5079928;28;21457;-79
2023/07/26 11:13:08;;;;;;;5.60;4.30;;;20.20;99.90;;;;;;5085853;28;20998;-82
2023/07/26 11:15:38;;;;;;;4.03;3.60;;;20.50;1.00;;;;;;5085191;28;20481;-81
2023/07/26 11:18:05;;;;;;;6.40;3.73;;;20.80;55.00;;;;;;5085442;28;20459;-81
2023/07/26 11:20:32;;;;;;;4.90;3.57;;;21.20;99.90;;;;;;5086003;28;20447;-81
2023/07/26 11:22:59;;;;;;;7.40;4.17;;;21.30;1.00;;;;;;5085494;28;20450;-82
2023/07/26 11:25:26;;;;;;;4.33;3.40;;;21.70;94.80;;;;;;5084386;28;20502;-80
2023/07/26 11:27:54;;;;;;;3.30;2.63;;;22.00;35.60;;;;;;5086137;28;20451;-80
2023/07/26 11:30:21;;;;;;;3.77;3.07;;;22.20;1.00;;;;;;5084394;28;20460;-80
2023/07/26 11:32:51;;;;;;;5.70;3.70;;;22.30;99.90;;;;;;5084130;28;20451;-80
2023/07/26 11:35:20;;;;;;;4.70;3.50;;;22.60;2.90;;;;;;5085043;28;20454;-80
2023/07/26 11:37:52;;;;;;;5.47;3.60;;;22.80;1.00;;;;;;5086074;28;20455;-81
2023/07/26 11:40:18;;;;;;;3.57;2.80;;;23.00;1.00;;;;;;5085554;28;20488;-80
2023/07/26 11:42:45;;;;;;;4.47;3.53;;;23.10;1.00;;;;;;5085574;28;20455;-80
2023/07/26 11:45:13;;;;;;;7.63;3.63;;;23.10;1.00;;;;;;5084813;28;20486;-78
2023/07/26 11:47:41;;;;;;;4.60;3.27;;;23.40;99.90;;;;;;5083296;28;20462;-80
2023/07/26 11:50:10;;;;;;;3.70;3.17;;;23.30;99.90;;;;;;5081153;28;20522;-79
2023/07/26 11:52:38;;;;;;;6.70;3.87;;;23.00;99.90;;;;;;5084719;28;20462;-81
2023/07/26 11:55:06;;;;;;;9.20;4.00;;;23.10;1.00;;;;;;5084219;28;20447;-81
2023/07/26 11:57:33;;;;;;;5.03;3.93;;;23.10;99.90;;;;;;5082631;28;20561;-80
2023/07/26 12:00:01;;;;;;;4.70;3.70;;;22.80;99.90;;;;;;5082597;28;20546;-79
2023/07/26 12:02:29;;;;;;;8.43;3.90;;;22.60;99.90;;;;;;5084732;28;20888;-78
2023/07/26 12:05:19;;;;;;;6.33;4.93;;;22.80;1.00;;;;;;5087981;28;20511;-81
2023/07/26 12:07:51;;;;;;;5.40;3.93;;;23.30;64.60;;;;;;5078853;28;20428;-81
2023/07/26 12:10:19;;;;;;;5.23;4.63;;;23.50;99.90;;;;;;5082577;28;20519;-82
2023/07/26 12:12:46;;;;;;;6.77;4.60;;;23.40;1.00;;;;;;5079849;28;20443;-81
2023/07/26 12:15:13;;;;;;;5.33;4.40;;;23.10;1.00;;;;;;5075638;28;20446;-79
2023/07/26 12:17:59;;;;;;;5.63;4.43;;;22.60;99.90;;;;;;5080703;28;20489;-81
2023/07/26 12:20:30;;;;;;;6.50;5.30;;;22.30;99.90;;;;;;5086798;28;20431;-83
2023/07/26 12:22:59;;;;;;;7.97;4.87;;;22.30;1.00;;;;;;5086555;28;20447;-82
2023/07/26 12:25:37;;;;;;;5.47;4.50;;;22.20;1.00;;;;;;5085537;28;20518;-82
2023/07/26 12:28:07;;;;;;;6.47;4.93;;;21.90;99.90;;;;;;5086311;28;20466;-82
2023/07/26 12:30:34;;;;;;;7.70;5.30;;;21.70;99.90;;;;;;5088091;28;20470;-81
2023/07/26 12:33:12;;;;;;;7.00;5.60;;;21.80;99.90;;;;;;5090166;28;20541;-82
2023/07/26 12:35:40;;;;;;;6.37;4.50;;;22.20;99.90;;;;;;5088896;28;20518;-81
2023/07/26 12:38:11;;;;;;;7.60;4.90;;;22.30;99.90;;;;;;5100343;22;20950;-81
2023/07/26 12:40:38;;;;;;;6.10;4.80;;;22.20;1.00;;;;;;5084661;28;20442;-81
2023/07/26 12:43:22;;;;;;;5.30;4.67;;;22.00;1.00;;;;;;5089992;28;20906;-81
2023/07/26 12:45:49;;;;;;;6.53;4.23;;;21.70;99.90;;;;;;5089178;28;20585;-81
2023/07/26 12:48:15;;;;;;;6.50;4.40;;;21.20;1.00;;;;;;5089603;28;20475;-80
2023/07/26 12:50:54;;;;;;;6.33;4.50;;;20.80;99.90;;;;;;5089343;28;20465;-83
2023/07/26 12:53:27;;;;;;;7.10;4.57;;;20.40;7.40;;;;;;5089564;28;20445;-81
2023/07/26 12:55:54;;;;;;;6.90;4.70;;;19.70;99.90;;;;;;5082494;28;20456;-82